Time;durP1;ratioP1;P1;durP2;ratioP2;P2;SDS_P1;SDS_P2;PMS_P1;PMS_P2;Temp;Humidity;BMP_temperature;BMP_pressure;BME280_temperature;BME280_humidity;BME280_pressure;Samples;Min_cycle;Max_cycle;Signal;HPM_P1;HPM_P2
2022/08/31 00:04:16;;;;;;;;;;;16.30;96.30;;;;;;5047255;28;20381;-71
2022/08/31 00:06:42;;;;;;;;;;;16.30;96.20;;;;;;5054451;28;19963;-71
2022/08/31 00:09:07;;;;;;;;;;;16.30;95.70;;;;;;5042330;28;20023;-71
2022/08/31 00:11:34;;;;;;;;;;;16.20;95.50;;;;;;5036609;28;19974;-71
2022/08/31 00:14:06;;;;;;;;;;;16.20;95.60;;;;;;5041994;28;19946;-71
2022/08/31 00:16:33;;;;;;;;;;;16.10;95.70;;;;;;5054898;28;20019;-71
2022/08/31 00:18:58;;;;;;;;;;;16.20;96.20;;;;;;5055865;28;19920;-71
2022/08/31 00:21:25;;;;;;;;;;;16.20;95.70;;;;;;5051611;28;20456;-71
2022/08/31 00:23:51;;;;;;;;;;;16.10;95.70;;;;;;5045571;28;19932;-71
2022/08/31 00:26:17;;;;;;;;;;;16.00;95.90;;;;;;5039947;28;20416;-71
2022/08/31 00:28:43;;;;;;;;;;;16.00;95.90;;;;;;5035445;28;19920;-71
2022/08/31 00:31:09;;;;;;;;;;;16.10;96.30;;;;;;5041753;28;20023;-71
2022/08/31 00:33:35;;;;;;;;;;;16.00;96.20;;;;;;5047557;28;19929;-71
2022/08/31 00:36:02;;;;;;;;;;;16.00;96.40;;;;;;5052355;28;19927;-72
2022/08/31 00:38:28;;;;;;;;;;;15.90;96.30;;;;;;5041272;28;20062;-71
2022/08/31 00:40:53;;;;;;;;;;;15.90;96.60;;;;;;5055297;28;20010;-71
2022/08/31 00:43:40;;;;;;;;;;;15.90;96.70;;;;;;5048086;28;20327;-71
2022/08/31 00:46:06;;;;;;;;;;;15.90;97.10;;;;;;5054493;28;19946;-71
2022/08/31 00:48:32;;;;;;;;;;;15.90;97.20;;;;;;5047659;28;20080;-71
2022/08/31 00:50:58;;;;;;;;;;;15.90;96.80;;;;;;5069400;28;19970;-71
2022/08/31 00:53:23;;;;;;;;;;;15.80;96.50;;;;;;5046001;28;19933;-71
2022/08/31 00:55:49;;;;;;;;;;;15.80;96.60;;;;;;5036627;28;20302;-71
2022/08/31 00:58:14;;;;;;;;;;;15.80;99.00;;;;;;5063837;28;19928;-71
2022/08/31 01:00:42;;;;;;;;;;;15.70;98.30;;;;;;5043023;28;19921;-71
2022/08/31 01:03:08;;;;;;;;;;;15.60;96.90;;;;;;5030833;28;20016;-71
2022/08/31 01:05:34;;;;;;;;;;;15.60;97.00;;;;;;5050899;28;19963;-71
2022/08/31 01:08:00;;;;;;;;;;;15.50;97.20;;;;;;5047138;28;19928;-71
2022/08/31 01:10:29;;;;;;;;;;;15.40;97.20;;;;;;5050161;28;19920;-71
2022/08/31 01:12:56;;;;;;;;;;;15.50;97.90;;;;;;5053745;28;19924;-71
2022/08/31 01:15:23;;;;;;;;;;;15.40;97.70;;;;;;5051710;28;19924;-71
2022/08/31 01:17:50;;;;;;;;;;;15.40;97.70;;;;;;5070926;28;20007;-71
2022/08/31 01:20:36;;;;;;;;;;;15.40;98.70;;;;;;5052431;28;19927;-71
2022/08/31 01:23:13;;;;;;;;;;;15.40;99.60;;;;;;5046139;28;19989;-71
2022/08/31 01:25:40;;;;;;;;;;;15.30;98.30;;;;;;5052496;28;19929;-71
2022/08/31 01:28:07;;;;;;;;;;;15.30;98.80;;;;;;5052633;28;19927;-71
2022/08/31 01:30:32;;;;;;;;;;;15.20;98.60;;;;;;5053578;28;20378;-71
2022/08/31 01:32:58;;;;;;;;;;;15.10;98.60;;;;;;5052685;28;19924;-71
2022/08/31 01:35:24;;;;;;;;;;;15.10;99.10;;;;;;5070250;28;19924;-71
2022/08/31 01:37:50;;;;;;;;;;;15.00;99.00;;;;;;5048057;28;19927;-71
2022/08/31 01:40:15;;;;;;;;;;;14.80;99.10;;;;;;5053337;28;19968;-70
2022/08/31 01:42:41;;;;;;;;;;;14.80;99.50;;;;;;5053611;28;19959;-70
2022/08/31 01:45:07;;;;;;;;;;;14.70;99.50;;;;;;5047671;28;19943;-69
2022/08/31 01:47:33;;;;;;;;;;;14.60;99.60;;;;;;5052938;28;19967;-69
2022/08/31 01:49:58;;;;;;;;;;;14.60;99.70;;;;;;5068225;28;19924;-69
2022/08/31 01:52:25;;;;;;;;;;;14.40;99.80;;;;;;5063519;28;20393;-69
2022/08/31 01:54:50;;;;;;;;;;;14.40;99.90;;;;;;5053167;28;19921;-69
2022/08/31 01:57:16;;;;;;;;;;;14.40;99.90;;;;;;5070461;28;19974;-69
2022/08/31 01:59:41;;;;;;;;;;;14.30;99.90;;;;;;5069500;28;20652;-69
2022/08/31 02:02:07;;;;;;;;;;;14.20;99.90;;;;;;5053907;28;20011;-69
2022/08/31 02:04:32;;;;;;;;;;;14.20;99.90;;;;;;5039501;28;19979;-69
2022/08/31 02:06:59;;;;;;;;;;;14.20;99.90;;;;;;5033961;28;19960;-69
2022/08/31 02:09:24;;;;;;;;;;;14.10;99.90;;;;;;5034107;28;20015;-69
2022/08/31 02:11:50;;;;;;;;;;;14.00;99.90;;;;;;5069294;28;20035;-69
2022/08/31 02:14:17;;;;;;;;;;;14.00;99.90;;;;;;5052354;28;19920;-69
2022/08/31 02:16:43;;;;;;;;;;;13.90;99.90;;;;;;5052930;28;19925;-69
2022/08/31 02:19:08;;;;;;;;;;;13.90;99.90;;;;;;5053752;28;19947;-69
2022/08/31 02:21:34;;;;;;;;;;;13.80;99.90;;;;;;5048320;28;19921;-69
2022/08/31 02:24:00;;;;;;;;;;;13.80;99.90;;;;;;5051015;28;20365;-69
2022/08/31 02:26:26;;;;;;;;;;;13.70;99.90;;;;;;5035158;28;19974;-69
2022/08/31 02:28:51;;;;;;;;;;;13.70;99.90;;;;;;5051733;28;19928;-69
2022/08/31 02:31:17;;;;;;;;;;;13.70;99.90;;;;;;5052371;28;19928;-69
2022/08/31 02:33:44;;;;;;;;;;;13.70;99.90;;;;;;5051071;28;19925;-69
2022/08/31 02:36:10;;;;;;;;;;;13.70;99.90;;;;;;5063147;28;19970;-69
2022/08/31 02:38:36;;;;;;;;;;;13.60;99.90;;;;;;5052113;28;19925;-69
2022/08/31 02:41:02;;;;;;;;;;;13.60;99.90;;;;;;5051249;28;19932;-69
2022/08/31 02:43:27;;;;;;;;;;;13.60;99.90;;;;;;5034620;28;19925;-69
2022/08/31 02:45:53;;;;;;;;;;;13.60;99.90;;;;;;5043159;28;19920;-69
2022/08/31 02:48:18;;;;;;;;;;;13.60;99.90;;;;;;5041063;28;19921;-69
2022/08/31 02:50:45;;;;;;;;;;;13.50;99.90;;;;;;5052692;28;20368;-69
2022/08/31 02:53:12;;;;;;;;;;;13.50;99.90;;;;;;5050995;28;20390;-69
2022/08/31 02:55:37;;;;;;;;;;;13.50;99.90;;;;;;5050806;28;19920;-69
2022/08/31 02:58:03;;;;;;;;;;;13.50;99.90;;;;;;5027425;28;20411;-69
2022/08/31 03:00:30;;;;;;;;;;;13.40;99.90;;;;;;5048325;28;19921;-69
2022/08/31 03:02:55;;;;;;;;;;;13.40;99.90;;;;;;5049874;28;19938;-69
2022/08/31 03:05:21;;;;;;;;;;;13.40;99.90;;;;;;5068033;28;20370;-69
2022/08/31 03:07:48;;;;;;;;;;;13.30;99.90;;;;;;5047191;28;19971;-69
2022/08/31 03:10:14;;;;;;;;;;;13.30;99.90;;;;;;5049292;28;19921;-69
2022/08/31 03:12:40;;;;;;;;;;;13.20;99.90;;;;;;5063394;28;19931;-69
2022/08/31 03:15:06;;;;;;;;;;;13.20;99.90;;;;;;5061570;28;19927;-69
2022/08/31 03:17:31;;;;;;;;;;;13.20;99.90;;;;;;5052154;28;19925;-69
2022/08/31 03:19:59;;;;;;;;;;;13.10;99.90;;;;;;5047600;28;19924;-69
2022/08/31 03:22:25;;;;;;;;;;;13.00;99.90;;;;;;5060395;28;19924;-69
2022/08/31 03:24:51;;;;;;;;;;;13.00;99.90;;;;;;5020701;28;19975;-69
2022/08/31 03:27:17;;;;;;;;;;;12.90;99.90;;;;;;5037269;28;20421;-69
2022/08/31 03:29:42;;;;;;;;;;;12.80;99.90;;;;;;5048047;28;19925;-69
2022/08/31 03:32:08;;;;;;;;;;;12.80;99.90;;;;;;5055927;28;19933;-69
2022/08/31 03:34:33;;;;;;;;;;;12.70;99.90;;;;;;5056010;28;19949;-69
2022/08/31 03:36:59;;;;;;;;;;;12.70;99.90;;;;;;5038919;28;19920;-69
2022/08/31 03:39:24;;;;;;;;;;;12.60;99.90;;;;;;5045539;28;19920;-69
2022/08/31 03:41:50;;;;;;;;;;;12.50;99.90;;;;;;5039719;28;19967;-68
2022/08/31 03:44:22;;;;;;;;;;;12.50;99.90;;;;;;5048053;28;20377;-69
2022/08/31 03:46:49;;;;;;;;;;;12.50;99.90;;;;;;5056072;28;20292;-71
2022/08/31 03:49:15;;;;;;;;;;;12.50;99.90;;;;;;5054994;28;19956;-68
2022/08/31 03:51:40;;;;;;;;;;;12.40;99.90;;;;;;5050401;28;19963;-69
2022/08/31 03:54:05;;;;;;;;;;;12.40;99.90;;;;;;5054692;28;20075;-69
2022/08/31 03:56:31;;;;;;;;;;;12.40;99.90;;;;;;5055851;28;19920;-69
2022/08/31 03:58:56;;;;;;;;;;;12.40;99.90;;;;;;5060426;28;19950;-70
2022/08/31 04:01:22;;;;;;;;;;;12.40;99.90;;;;;;5024566;28;19928;-69
2022/08/31 04:03:47;;;;;;;;;;;12.30;99.90;;;;;;5056143;28;19963;-69
2022/08/31 04:06:13;;;;;;;;;;;12.30;99.90;;;;;;5055987;28;20324;-69
2022/08/31 04:08:38;;;;;;;;;;;12.30;99.90;;;;;;5038516;28;19931;-70
2022/08/31 04:11:06;;;;;;;;;;;12.30;99.90;;;;;;5039354;28;20366;-70
2022/08/31 04:13:31;;;;;;;;;;;12.30;99.90;;;;;;5041222;28;20275;-70
2022/08/31 04:15:59;;;;;;;;;;;12.30;99.90;;;;;;5035935;28;19928;-70
2022/08/31 04:18:25;;;;;;;;;;;12.30;99.90;;;;;;5045773;28;20018;-70
2022/08/31 04:20:50;;;;;;;;;;;12.20;99.90;;;;;;5039287;28;20022;-69
2022/08/31 04:23:16;;;;;;;;;;;12.30;99.90;;;;;;5054822;28;19921;-70
2022/08/31 04:25:41;;;;;;;;;;;12.20;99.90;;;;;;5073875;28;20003;-70
2022/08/31 04:28:08;;;;;;;;;;;12.20;99.90;;;;;;5071344;28;19927;-70
2022/08/31 04:30:36;;;;;;;;;;;12.20;99.90;;;;;;5064375;28;19925;-70
2022/08/31 04:33:01;;;;;;;;;;;12.20;99.90;;;;;;5063623;28;20366;-69
2022/08/31 04:35:27;;;;;;;;;;;12.20;99.90;;;;;;5053076;28;19921;-70
2022/08/31 04:37:53;;;;;;;;;;;12.20;99.90;;;;;;5071436;28;20034;-70
2022/08/31 04:40:19;;;;;;;;;;;12.20;99.90;;;;;;5051375;28;19921;-69
2022/08/31 04:42:48;;;;;;;;;;;12.10;99.90;;;;;;5051821;28;19920;-69
2022/08/31 04:45:14;;;;;;;;;;;12.20;99.90;;;;;;5053019;28;19939;-69
2022/08/31 04:47:40;;;;;;;;;;;12.10;99.90;;;;;;5049753;28;19921;-69
2022/08/31 04:50:06;;;;;;;;;;;12.10;99.90;;;;;;5053158;28;19997;-69
2022/08/31 04:52:32;;;;;;;;;;;12.10;99.90;;;;;;5054859;28;19932;-69
2022/08/31 04:54:57;;;;;;;;;;;12.10;99.90;;;;;;5050860;28;19940;-69
2022/08/31 04:57:23;;;;;;;;;;;12.10;99.90;;;;;;5054624;28;20021;-69
2022/08/31 04:59:48;;;;;;;;;;;12.10;99.90;;;;;;5040178;28;19927;-69
2022/08/31 05:02:14;;;;;;;;;;;12.00;99.90;;;;;;5051605;28;19951;-69
2022/08/31 05:04:39;;;;;;;;;;;12.00;99.90;;;;;;5052096;28;19921;-70
2022/08/31 05:07:05;;;;;;;;;;;12.00;99.90;;;;;;5055033;28;19931;-69
2022/08/31 05:09:31;;;;;;;;;;;12.00;99.90;;;;;;5053590;28;20366;-69
2022/08/31 05:11:56;;;;;;;;;;;12.00;99.90;;;;;;5070381;28;19928;-69
2022/08/31 05:14:22;;;;;;;;;;;12.10;99.90;;;;;;5068050;28;19928;-69
2022/08/31 05:16:48;;;;;;;;;;;12.10;99.90;;;;;;5050266;28;20295;-69
2022/08/31 05:19:14;;;;;;;;;;;12.10;99.90;;;;;;5053659;28;20641;-69
2022/08/31 05:21:41;;;;;;;;;;;12.20;99.90;;;;;;5054378;28;19924;-69
2022/08/31 05:24:14;;;;;;;;;;;12.20;99.90;;;;;;5035437;28;19924;-70
2022/08/31 05:26:43;;;;;;;;;;;12.20;99.90;;;;;;5053835;28;19988;-69
2022/08/31 05:29:09;;;;;;;;;;;12.20;99.90;;;;;;5053736;28;19925;-69
2022/08/31 05:31:35;;;;;;;;;;;12.20;99.90;;;;;;5054537;28;19989;-70
2022/08/31 05:34:00;;;;;;;;;;;12.30;99.90;;;;;;5051228;28;20027;-70
2022/08/31 05:36:26;;;;;;;;;;;12.30;99.90;;;;;;5070940;28;20015;-70
2022/08/31 05:38:52;;;;;;;;;;;12.30;99.90;;;;;;5066229;28;19983;-69
2022/08/31 05:41:18;;;;;;;;;;;12.30;99.90;;;;;;5054146;28;19928;-70
2022/08/31 05:43:44;;;;;;;;;;;12.40;99.90;;;;;;5034969;28;19935;-70
2022/08/31 05:46:10;;;;;;;;;;;12.50;99.90;;;;;;5053299;28;20007;-69
2022/08/31 05:48:36;;;;;;;;;;;13.40;99.90;;;;;;5051715;28;19928;-70
2022/08/31 05:51:02;;;;;;;;;;;;;;;;;;5053103;28;19924;-70
2022/08/31 05:53:28;;;;;;;;;;;16.10;99.90;;;;;;5053646;28;19928;-70
2022/08/31 05:55:57;;;;;;;;;;;17.10;99.90;;;;;;5054156;28;19927;-70
2022/08/31 05:58:23;;;;;;;;;;;17.90;99.40;;;;;;5071886;28;19920;-70
2022/08/31 06:00:48;;;;;;;;;;;18.70;98.40;;;;;;5071646;28;19936;-70
2022/08/31 06:03:14;;;;;;;;;;;19.40;95.00;;;;;;5053825;28;19947;-70
2022/08/31 06:05:40;;;;;;;;;;;20.00;93.40;;;;;;5052729;28;19924;-70
2022/08/31 06:08:06;;;;;;;;;;;20.60;92.40;;;;;;5053803;28;20377;-70
2022/08/31 06:10:31;;;;;;;;;;;20.50;91.90;;;;;;5068714;28;19941;-70
2022/08/31 06:12:57;;;;;;;;;;;20.40;91.40;;;;;;5046821;28;19925;-70
2022/08/31 06:15:23;;;;;;;;;;;20.60;91.30;;;;;;5055557;28;20026;-70
2022/08/31 06:17:48;;;;;;;;;;;21.10;90.90;;;;;;5053413;28;20517;-68
2022/08/31 06:20:16;;;;;;;;;;;21.60;92.10;;;;;;5054137;28;19920;-69
2022/08/31 06:22:45;;;;;;;;;;;22.70;92.10;;;;;;5043971;28;19924;-68
2022/08/31 06:25:16;;;;;;;;;;;22.70;87.30;;;;;;5054256;28;19921;-69
2022/08/31 06:27:42;;;;;;;;;;;22.70;85.60;;;;;;5051842;28;19931;-69
2022/08/31 06:30:08;;;;;;;;;;;23.30;85.90;;;;;;5064644;28;19925;-69
2022/08/31 06:32:34;;;;;;;;;;;23.60;83.70;;;;;;5032765;28;19932;-71
2022/08/31 06:34:59;;;;;;;;;;;24.30;88.20;;;;;;5042294;28;19925;-71
2022/08/31 06:37:25;;;;;;;;;;;25.20;85.80;;;;;;5052095;28;20292;-72
2022/08/31 06:39:50;;;;;;;;;;;;;;;;;;5053270;28;19926;-69
2022/08/31 06:42:16;;;;;;;;;;;25.30;77.90;;;;;;5066920;28;19924;-70
2022/08/31 06:44:42;;;;;;;;;;;24.40;79.40;;;;;;5050334;28;19983;-70
2022/08/31 06:47:07;;;;;;;;;;;24.40;79.70;;;;;;5060132;28;19971;-69
2022/08/31 06:49:33;;;;;;;;;;;23.90;81.80;;;;;;5043934;28;19975;-69
2022/08/31 06:51:59;;;;;;;;;;;24.30;80.00;;;;;;5069867;28;20423;-69
2022/08/31 06:54:25;;;;;;;;;;;25.00;81.10;;;;;;5052645;28;20302;-69
2022/08/31 06:56:50;;;;;;;;;;;25.00;78.20;;;;;;5071333;28;19971;-69
2022/08/31 06:59:16;;;;;;;;;;;25.40;77.40;;;;;;5072008;28;19928;-69
2022/08/31 07:01:41;;;;;;;;;;;24.90;77.60;;;;;;5062214;28;19924;-69
2022/08/31 07:04:07;;;;;;;;;;;25.00;77.10;;;;;;5065658;28;20337;-69
2022/08/31 07:06:34;;;;;;;;;;;26.20;78.30;;;;;;5053779;28;20278;-69
2022/08/31 07:09:02;;;;;;;;;;;26.20;77.20;;;;;;5056805;28;20024;-69
2022/08/31 07:11:34;;;;;;;;;;;26.60;77.60;;;;;;5075256;28;19970;-69
2022/08/31 07:14:00;;;;;;;;;;;26.60;73.40;;;;;;5074144;28;19970;-69
2022/08/31 07:16:26;;;;;;;;;;;26.80;75.80;;;;;;5056695;28;19967;-69
2022/08/31 07:18:53;;;;;;;;;;;27.40;73.50;;;;;;5071252;28;19972;-69
2022/08/31 07:21:24;;;;;;;;;;;27.40;71.10;;;;;;5063020;28;20450;-69
2022/08/31 07:23:50;;;;;;;;;;;27.20;73.70;;;;;;5074872;28;19921;-69
2022/08/31 07:26:26;;;;;;;;;;;26.30;70.60;;;;;;5074257;28;20011;-69
2022/08/31 07:28:53;;;;;;;;;;;26.90;71.80;;;;;;5065767;28;19950;-69
2022/08/31 07:31:21;;;;;;;;;;;27.00;72.20;;;;;;5055411;28;19924;-69
2022/08/31 07:33:51;;;;;;;;;;;26.80;72.70;;;;;;5068426;28;19951;-69
2022/08/31 07:36:17;;;;;;;;;;;26.90;71.40;;;;;;5068681;28;19965;-69
2022/08/31 07:42:08;;;;;;;;;;;26.40;73.70;;;;;;5071729;28;19951;-70
2022/08/31 07:44:19;;;;;;;;;;;25.80;70.90;;;;;;5069707;28;19921;-70
2022/08/31 07:46:46;;;;;;;;;;;25.40;72.10;;;;;;5062570;28;19928;-69
2022/08/31 07:49:13;;;;;;;;;;;24.80;75.70;;;;;;5070661;28;20053;-68
2022/08/31 07:51:42;;;;;;;;;;;23.90;75.80;;;;;;5054593;28;21481;-68
2022/08/31 07:54:09;;;;;;;;;;;23.10;80.20;;;;;;5072459;28;19935;-69
2022/08/31 07:56:36;;;;;;;;;;;22.40;78.90;;;;;;5055117;28;19920;-68
2022/08/31 07:59:02;;;;;;;;;;;22.00;82.80;;;;;;5037551;28;20341;-69
2022/08/31 08:01:30;;;;;;;;;;;21.10;80.00;;;;;;5068342;28;19927;-69
2022/08/31 08:03:58;;;;;;;;;;;21.10;85.10;;;;;;5034366;28;19920;-69
2022/08/31 08:06:27;;;;;;;;;;;21.10;86.20;;;;;;5071864;28;19924;-69
2022/08/31 08:08:53;;;;;;;;;;;20.70;85.60;;;;;;5068837;28;19982;-69
2022/08/31 08:11:22;;;;;;;;;;;20.60;86.70;;;;;;5060998;28;19932;-70
2022/08/31 08:13:48;;;;;;;;;;;20.50;88.20;;;;;;5041939;28;19936;-69
2022/08/31 08:16:14;;;;;;;;;;;20.60;88.20;;;;;;5067824;28;20293;-69
2022/08/31 08:18:39;;;;;;;;;;;20.70;88.60;;;;;;5073065;28;19999;-69
2022/08/31 08:21:05;;;;;;;;;;;20.60;88.30;;;;;;5055866;28;19924;-69
2022/08/31 08:23:31;;;;;;;;;;;20.60;85.60;;;;;;5074990;23;19928;-66
2022/08/31 08:25:59;;;;;;;;;;;20.60;88.10;;;;;;5113222;28;19920;-66
2022/08/31 08:28:28;;;;;;;;;;;20.70;87.40;;;;;;5113104;28;19920;-66
2022/08/31 08:30:59;;;;;;;;;;;20.70;86.00;;;;;;5095167;28;20002;-66
2022/08/31 08:33:29;;;;;;;;;;;20.70;88.50;;;;;;5112903;28;19924;-66
2022/08/31 08:35:59;;;;;;;;;;;20.60;85.10;;;;;;5112629;28;19923;-66
2022/08/31 08:38:25;;;;;;;;;;;20.60;87.40;;;;;;5110075;28;19920;-66
2022/08/31 08:40:52;;;;;;;;;;;20.60;87.70;;;;;;5105548;28;19932;-66
2022/08/31 08:43:19;;;;;;;;;;;20.50;87.20;;;;;;5092567;28;19920;-66
2022/08/31 08:45:47;;;;;;;;;;;20.60;90.00;;;;;;5112816;28;20250;-66
2022/08/31 08:48:14;;;;;;;;;;;20.70;88.20;;;;;;5094685;28;20332;-67
2022/08/31 08:50:40;;;;;;;;;;;20.60;87.10;;;;;;5094517;28;19920;-67
2022/08/31 08:53:07;;;;;;;;;;;20.70;89.80;;;;;;5092847;28;19931;-67
2022/08/31 08:55:35;;;;;;;;;;;20.90;87.00;;;;;;5105427;27;19926;-67
2022/08/31 08:58:04;;;;;;;;;;;20.90;86.20;;;;;;5089082;28;19931;-67
2022/08/31 09:00:30;;;;;;;;;;;21.10;89.70;;;;;;5085847;28;20503;-67
2022/08/31 09:02:59;;;;;;;;;;;21.10;86.70;;;;;;5093515;28;19923;-67
2022/08/31 09:05:40;;;;;;;;;;;20.90;85.80;;;;;;5095243;28;20446;-67
2022/08/31 09:08:27;;;;;;;;;;;21.00;87.00;;;;;;5094909;28;19924;-67
2022/08/31 09:11:17;;;;;;;;;;;21.00;85.40;;;;;;5075606;28;19954;-67
2022/08/31 09:13:54;;;;;;;;;;;21.00;86.20;;;;;;5095051;28;19927;-67
2022/08/31 09:16:27;;;;;;;;;;;20.70;87.00;;;;;;5077711;28;19930;-67
2022/08/31 09:18:59;;;;;;;;;;;20.80;86.60;;;;;;5106081;27;19927;-67
2022/08/31 09:21:33;;;;;;;;;;;20.90;86.90;;;;;;5109285;28;19920;-67
2022/08/31 09:24:01;;;;;;;;;;;21.10;86.60;;;;;;5094813;28;20010;-67
2022/08/31 09:26:34;;;;;;;;;;;21.10;88.10;;;;;;5094584;28;20036;-67
2022/08/31 09:29:02;;;;;;;;;;;21.30;86.10;;;;;;5094609;28;20376;-67
2022/08/31 09:31:33;;;;;;;;;;;21.30;86.90;;;;;;5093667;28;20053;-67
2022/08/31 09:33:59;;;;;;;;;;;21.30;84.80;;;;;;5094664;28;19935;-68
2022/08/31 09:36:32;;;;;;;;;;;21.50;84.80;;;;;;5094534;28;20533;-67
2022/08/31 09:39:12;;;;;;;;;;;21.70;87.40;;;;;;5092033;28;19924;-67
2022/08/31 09:41:37;;;;;;;;;;;21.80;86.70;;;;;;5094858;28;20011;-67
2022/08/31 09:44:22;;;;;;;;;;;21.80;84.10;;;;;;5094647;28;20010;-67
2022/08/31 09:46:49;;;;;;;;;;;22.00;86.90;;;;;;5094511;28;19919;-68
2022/08/31 09:49:19;;;;;;;;;;;22.10;80.80;;;;;;5077136;28;19923;-66
2022/08/31 09:51:46;;;;;;;;;;;22.10;81.30;;;;;;5111231;28;19920;-66
2022/08/31 09:57:01;;;;;;;;;;;22.30;82.60;;;;;;5110557;28;19926;-66
2022/08/31 09:59:36;;;;;;;;;;;22.40;85.70;;;;;;5112524;28;19919;-66
2022/08/31 10:02:06;;;;;;;;;;;22.50;79.00;;;;;;5107406;27;19960;-66
2022/08/31 10:04:35;;;;;;;;;;;22.30;85.20;;;;;;5132922;27;19920;-66
2022/08/31 10:07:06;;;;;;;;;;;22.40;85.00;;;;;;5097496;28;20541;-66
2022/08/31 10:09:35;;;;;;;;;;;22.60;79.20;;;;;;5076513;28;20019;-66
2022/08/31 10:12:05;;;;;;;;;;;22.40;77.80;;;;;;5091477;28;20368;-66
2022/08/31 10:14:49;;;;;;;;;;;22.60;83.40;;;;;;5094083;28;19931;-66
2022/08/31 10:17:24;;;;;;;;;;;22.50;79.00;;;;;;5093060;28;19920;-66
2022/08/31 10:19:50;;;;;;;;;;;22.60;80.10;;;;;;5077130;28;19976;-66
2022/08/31 10:22:24;;;;;;;;;;;22.30;78.80;;;;;;5091900;28;20006;-66
2022/08/31 10:25:16;;;;;;;;;;;22.60;81.30;;;;;;5073584;28;20008;-66
2022/08/31 10:27:48;;;;;;;;;;;22.60;84.20;;;;;;5074293;28;19928;-66
2022/08/31 10:30:19;;;;;;;;;;;22.80;84.10;;;;;;5063014;28;19923;-65
2022/08/31 10:32:48;;;;;;;;;;;22.30;79.20;;;;;;5111536;28;19924;-66
2022/08/31 10:35:13;;;;;;;;;;;22.40;81.50;;;;;;5096672;28;19975;-65
2022/08/31 10:37:42;;;;;;;;;;;21.90;77.70;;;;;;5093193;28;19923;-66
2022/08/31 10:40:11;;;;;;;;;;;22.30;81.40;;;;;;5108745;28;19920;-65
2022/08/31 10:42:39;;;;;;;;;;;22.20;78.30;;;;;;5114374;28;19931;-65
2022/08/31 10:45:21;;;;;;;;;;;22.00;77.90;;;;;;5112610;28;19935;-65
2022/08/31 10:47:48;;;;;;;;;;;22.40;80.40;;;;;;5084006;28;19919;-67
2022/08/31 10:50:18;;;;;;;;;;;22.20;82.00;;;;;;5108606;28;19935;-66
2022/08/31 10:53:10;;;;;;;;;;;21.90;76.20;;;;;;5086990;28;19932;-66
2022/08/31 10:55:56;;;;;;;;;;;21.60;77.90;;;;;;5092010;28;19965;-65
2022/08/31 10:58:31;;;;;;;;;;;22.10;78.20;;;;;;5093278;28;20023;-66
2022/08/31 11:01:27;;;;;;;;;;;22.30;74.80;;;;;;5095389;28;19920;-66
2022/08/31 11:04:11;;;;;;;;;;;22.30;80.50;;;;;;5077719;28;20434;-66
2022/08/31 11:06:42;;;;;;;;;;;22.60;83.50;;;;;;5095110;28;20592;-66
2022/08/31 11:09:18;;;;;;;;;;;22.70;79.80;;;;;;5094795;28;20415;-66
2022/08/31 11:11:46;;;;;;;;;;;22.80;80.30;;;;;;5092315;28;19924;-65
2022/08/31 11:14:18;;;;;;;;;;;22.80;75.80;;;;;;5088697;28;19924;-66
2022/08/31 11:17:01;;;;;;;;;;;22.70;74.20;;;;;;5094965;28;20106;-66
2022/08/31 11:19:36;;;;;;;;;;;22.60;76.00;;;;;;5099735;28;19920;-66
2022/08/31 11:22:09;;;;;;;;;;;23.00;81.10;;;;;;5115523;28;20028;-66
2022/08/31 11:24:50;;;;;;;;;;;22.80;77.80;;;;;;5115384;28;19938;-66
2022/08/31 11:27:17;;;;;;;;;;;22.70;78.70;;;;;;5096894;28;19956;-66
2022/08/31 11:30:06;;;;;;;;;;;22.50;75.10;;;;;;5096476;28;20006;-66
2022/08/31 11:32:44;;;;;;;;;;;22.70;75.10;;;;;;5096614;28;20397;-66
2022/08/31 11:35:10;;;;;;;;;;;22.90;78.20;;;;;;5115455;28;19994;-66
2022/08/31 11:37:51;;;;;;;;;;;23.00;79.50;;;;;;5113788;28;20002;-67
2022/08/31 11:40:40;;;;;;;;;;;23.10;74.30;;;;;;5094918;28;20006;-66
2022/08/31 11:43:24;;;;;;;;;;;22.70;71.80;;;;;;5114493;28;20441;-66
2022/08/31 11:45:51;;;;;;;;;;;22.90;78.00;;;;;;5094261;28;20370;-66
2022/08/31 11:48:36;;;;;;;;;;;23.20;81.00;;;;;;5087298;28;20389;-67
2022/08/31 11:51:05;;;;;;;;;;;23.20;80.90;;;;;;5100275;28;19927;-66
2022/08/31 11:53:31;;;;;;;;;;;23.40;80.30;;;;;;5095543;28;20648;-66
2022/08/31 11:56:02;;;;;;;;;;;22.80;70.40;;;;;;5113986;28;20011;-66
2022/08/31 11:58:37;;;;;;;;;;;22.80;71.90;;;;;;5085216;28;19924;-67
2022/08/31 12:01:08;;;;;;;;;;;22.70;74.80;;;;;;5107968;28;20279;-66
2022/08/31 12:03:50;;;;;;;;;;;22.90;72.50;;;;;;5107197;28;19935;-66
2022/08/31 12:06:28;;;;;;;;;;;23.30;80.00;;;;;;5108541;28;19920;-66
2022/08/31 12:09:09;;;;;;;;;;;23.00;75.60;;;;;;5109361;28;19927;-66
2022/08/31 12:11:39;;;;;;;;;;;22.90;72.00;;;;;;5103919;27;20260;-66
2022/08/31 12:14:11;;;;;;;;;;;23.10;75.20;;;;;;5085737;28;19939;-66
2022/08/31 12:16:42;;;;;;;;;;;23.30;73.50;;;;;;5092093;28;20137;-66
2022/08/31 12:25:11;;;;;;;;;;;23.60;76.90;;;;;;5095909;28;20401;-66
2022/08/31 12:27:50;;;;;;;;;;;23.80;77.40;;;;;;5108592;28;19946;-66
2022/08/31 12:30:17;;;;;;;;;;;23.60;71.10;;;;;;5075991;28;20010;-66
2022/08/31 12:32:43;;;;;;;;;;;23.60;72.90;;;;;;5112389;28;19976;-67
2022/08/31 12:35:09;;;;;;;;;;;23.70;77.80;;;;;;5113967;28;20479;-66
2022/08/31 12:37:36;;;;;;;;;;;23.60;69.60;;;;;;5111317;28;19938;-66
2022/08/31 12:40:14;;;;;;;;;;;23.70;73.10;;;;;;5111157;28;20331;-67
2022/08/31 12:42:58;;;;;;;;;;;23.60;75.70;;;;;;5075738;28;19920;-66
2022/08/31 12:45:36;;;;;;;;;;;23.60;68.60;;;;;;5080818;28;20393;-65
2022/08/31 12:48:20;;;;;;;;;;;23.20;67.80;;;;;;5093408;28;19919;-66
2022/08/31 12:51:08;;;;;;;;;;;23.50;77.70;;;;;;5113357;28;19958;-66
2022/08/31 12:53:50;;;;;;;;;;;23.60;68.60;;;;;;5100291;28;20400;-66
2022/08/31 12:56:15;;;;;;;;;;;23.60;70.30;;;;;;5100036;27;19931;-66
2022/08/31 12:59:00;;;;;;;;;;;23.50;70.30;;;;;;5074518;28;19931;-66
2022/08/31 13:01:25;;;;;;;;;;;23.60;70.70;;;;;;5093379;28;19930;-66
2022/08/31 13:03:57;;;;;;;;;;;23.20;69.30;;;;;;5099398;28;19920;-66
2022/08/31 13:06:30;;;;;;;;;;;23.50;74.20;;;;;;5095234;28;19974;-66
2022/08/31 13:08:57;;;;;;;;;;;23.90;76.80;;;;;;5095012;28;19923;-66
2022/08/31 13:11:28;;;;;;;;;;;23.90;70.80;;;;;;5089552;28;20007;-66
2022/08/31 13:14:06;;;;;;;;;;;23.80;70.90;;;;;;5091439;28;20033;-66
2022/08/31 13:16:32;;;;;;;;;;;24.00;70.00;;;;;;5093077;28;19983;-66
2022/08/31 13:19:04;;;;;;;;;;;24.10;71.80;;;;;;5097250;28;19959;-66
2022/08/31 13:21:30;;;;;;;;;;;24.10;74.40;;;;;;5092898;28;19926;-66
2022/08/31 13:24:06;;;;;;;;;;;24.20;75.50;;;;;;5074144;28;19928;-66
2022/08/31 13:26:34;;;;;;;;;;;24.10;69.20;;;;;;5074581;28;19935;-66
2022/08/31 13:29:03;;;;;;;;;;;23.60;71.00;;;;;;5077518;28;19923;-65
2022/08/31 13:31:31;;;;;;;;;;;23.50;71.40;;;;;;5074655;28;20001;-67
2022/08/31 13:34:01;;;;;;;;;;;23.30;71.80;;;;;;5107632;27;19946;-67
2022/08/31 13:36:33;;;;;;;;;;;23.10;69.50;;;;;;5100390;27;20049;-67
2022/08/31 13:39:02;;;;;;;;;;;23.30;74.60;;;;;;5107316;27;20365;-67
2022/08/31 13:41:50;;;;;;;;;;;23.40;74.70;;;;;;5091302;28;20333;-66
2022/08/31 13:44:21;;;;;;;;;;;23.70;74.90;;;;;;5071456;28;20060;-66
2022/08/31 13:46:59;;;;;;;;;;;23.90;68.90;;;;;;5111805;28;19923;-67
2022/08/31 13:49:34;;;;;;;;;;;23.70;68.10;;;;;;5063691;28;19928;-66
2022/08/31 13:52:35;;;;;;;;;;;23.80;71.10;;;;;;5093026;28;19927;-66
2022/08/31 13:55:05;;;;;;;;;;;23.70;69.30;;;;;;5027080;28;20282;-66
2022/08/31 13:57:34;;;;;;;;;;;23.70;67.80;;;;;;5079046;28;19924;-66
2022/08/31 14:00:18;;;;;;;;;;;23.90;75.40;;;;;;5093037;28;19927;-66
2022/08/31 14:02:44;;;;;;;;;;;24.00;73.90;;;;;;5106258;28;20367;-67
2022/08/31 14:05:11;;;;;;;;;;;24.20;70.30;;;;;;5107046;28;19963;-66
2022/08/31 14:07:45;;;;;;;;;;;24.30;66.80;;;;;;5111679;28;20253;-67
2022/08/31 14:10:25;;;;;;;;;;;24.30;73.20;;;;;;5112676;27;19946;-67
2022/08/31 14:13:03;;;;;;;;;;;24.30;72.20;;;;;;5111627;28;19955;-67
2022/08/31 14:15:34;;;;;;;;;;;24.30;71.20;;;;;;5110874;28;19920;-66
2022/08/31 14:18:08;;;;;;;;;;;24.30;65.90;;;;;;5112237;28;19920;-66
2022/08/31 14:20:35;;;;;;;;;;;24.50;67.60;;;;;;5092941;28;19924;-67
2022/08/31 14:23:17;;;;;;;;;;;24.60;69.80;;;;;;5112174;28;20006;-66
2022/08/31 14:25:42;;;;;;;;;;;24.50;70.90;;;;;;5084672;28;19920;-67
2022/08/31 14:28:08;;;;;;;;;;;24.60;71.20;;;;;;5101468;28;19926;-66
2022/08/31 14:30:34;;;;;;;;;;;24.30;66.00;;;;;;5093321;28;20010;-66
2022/08/31 14:32:59;;;;;;;;;;;23.90;67.20;;;;;;5109535;28;19939;-67
2022/08/31 14:35:25;;;;;;;;;;;23.80;66.90;;;;;;5110768;28;19927;-67
2022/08/31 14:37:51;;;;;;;;;;;24.10;68.90;;;;;;5104342;28;19919;-66
2022/08/31 14:40:17;;;;;;;;;;;24.40;69.80;;;;;;5092424;28;20380;-66
2022/08/31 14:42:43;;;;;;;;;;;24.20;70.50;;;;;;5091928;28;19974;-66
2022/08/31 14:45:17;;;;;;;;;;;24.20;69.60;;;;;;5105946;28;20445;-66